Thai AirAsia A320 at Utapao on Jul 23rd 2017, runway excursion on landing

Last Update: January 25, 2018 / 16:30:59 GMT/Zulu time

Bookmark this article
Incident Facts

Date of incident
Jul 23, 2017

Classification
Incident

Flight number
FD-104

Destination
Utapao, Thailand

Aircraft Registration
HS-BBC

Aircraft Type
Airbus A320

ICAO Type Designator
A320

Airport ICAO Code
VTBU

A Thai AirAsia Airbus A320-200, registration HS-BBC performing flight FD-104 from Chiang Mai to Utapao (Thailand), landed on Utapao's runway 18 at 21:24L (14:24Z) but suffered a lateral runway excursion. There were no injuries, the aircraft did not sustain damage.

Thailand's AIB rated the occurrence a serious incident and opened an investigation reporting the aircraft suffered a lateral runway excursion while landing on Utapao's runway 18. There were no injuries, the aircraft did not receive any damage.

The aircraft remained on the ground in Utapao for more than 48 hours.

Metars:
VTBU 231600Z 01004KT 7000 FEW020CB BKN100 26/23 Q1009 NOSIG=
VTBU 231530Z 35006KT 6000 -RA FEW018CB SCT035 BKN100 26/23 Q1009 NOSIG=
VTBU 231500Z 27006KT 5000 -RA BR FEW018CB SCT035 BKN100 25/22 Q1009 NOSIG=
VTBU 231430Z 29010KT 3000 RA BR FEW018CB SCT035 BKN100 26/23 Q1009 NOSIG=
VTBU 231400Z 29008KT 5000 -RA BR FEW018CB SCT035 27/23 Q1008 NOSIG=
VTBU 231330Z 27012KT 6000 -SHRA FEW018CB SCT035 29/23 Q1008 NOSIG=
VTBU 231300Z 21006KT 8000 FEW020CB 29/23 Q1007 NOSIG=
VTBU 231230Z 21004KT 8000 FEW020CB 29/22 Q1006 NOSIG=
VTBU 231200Z 21004KT 9000 FEW020CB 29/22 Q1006 NOSIG=
VTBU 231130Z 23006KT 9999 FEW020TCU 30/22 Q1006 NOSIG=
VTBU 231100Z 20008KT 9999 FEW020 30/22 Q1006 NOSIG=
VTBU 231030Z 24006KT 9999 FEW020 31/22 Q1006 NOSIG=
VTBU 231000Z 24008KT 9999 FEW020 32/22 Q1006 NOSIG=
Incident Facts

Date of incident
Jul 23, 2017

Classification
Incident

Flight number
FD-104

Destination
Utapao, Thailand

Aircraft Registration
HS-BBC

Aircraft Type
Airbus A320

ICAO Type Designator
A320

Airport ICAO Code
VTBU

This article is published under license from Avherald.com. © of text by Avherald.com.
Article source

You can read 2 more free articles without a subscription.

Subscribe now and continue reading without any limits!

Are you a subscriber? Login
Subscribe

Read unlimited articles and receive our daily update briefing. Gain better insights into what is happening in commercial aviation safety.

Free newsletter

Want to know more and stay ahead? Get our free weekly newsletter and join 5471 existing subscribers.

By subscribing, you accept our terms and conditions and confirm that you've read our privacy policy.

Send tip

Support AeroInside by sending a small tip amount.

Related articles

Newest articles

Subscribe today

Are you researching aviation incidents? Get access to AeroInside Insights, unlimited read access and receive the daily newsletter.

Pick your plan and subscribe

Partner

Blockaviation logo

A new way to document and demonstrate airworthiness compliance and aircraft value. Find out more.

Virtual Speech logo

ELITE Simulation Solutions is a leading global provider of Flight Simulation Training Devices, IFR training software as well as flight controls and related services. Find out more.

Get updates

Never miss an article from AeroInside. Subscribe to our free weekly newsletter and join 5471 existing subscribers.

By subscribing, you accept our terms and conditions and that you've read our privacy policy.

AeroInside Blog
Popular aircraft
Airbus A320
Boeing 737-800
Boeing 737-800 MAX
Popular airlines
American Airlines
United
Delta
Air Canada
Lufthansa
British Airways